sensor_id;sensor_type;location;lat;lon;timestamp;pressure;altitude;pressure_sealevel;temperature;humidity
30554;BME280;17335;50.720;7.452;2023-05-15T00:01:23;99095.41;;;9.60;100.00
30554;BME280;17335;50.720;7.452;2023-05-15T00:03:50;99087.94;;;9.54;100.00
30554;BME280;17335;50.720;7.452;2023-05-15T00:06:17;99087.56;;;9.29;100.00
30554;BME280;17335;50.720;7.452;2023-05-15T00:08:44;99087.00;;;9.16;100.00
30554;BME280;17335;50.720;7.452;2023-05-15T00:11:11;99086.03;;;9.17;100.00
30554;BME280;17335;50.720;7.452;2023-05-15T00:13:37;99086.03;;;9.17;100.00
30554;BME280;17335;50.720;7.452;2023-05-15T00:16:06;99086.59;;;9.11;100.00
30554;BME280;17335;50.720;7.452;2023-05-15T00:18:33;99081.97;;;9.13;100.00
30554;BME280;17335;50.720;7.452;2023-05-15T00:21:00;99078.28;;;9.14;100.00
30554;BME280;17335;50.720;7.452;2023-05-15T00:23:27;99077.44;;;9.13;100.00
30554;BME280;17335;50.720;7.452;2023-05-15T00:25:53;99077.84;;;9.09;100.00
30554;BME280;17335;50.720;7.452;2023-05-15T00:28:20;99073.38;;;8.99;100.00
30554;BME280;17335;50.720;7.452;2023-05-15T00:30:47;99068.56;;;8.93;100.00
30554;BME280;17335;50.720;7.452;2023-05-15T00:33:13;99075.63;;;8.94;100.00
30554;BME280;17335;50.720;7.452;2023-05-15T00:35:41;99073.78;;;8.95;100.00
30554;BME280;17335;50.720;7.452;2023-05-15T00:38:07;99075.88;;;8.91;100.00
30554;BME280;17335;50.720;7.452;2023-05-15T00:40:35;99068.41;;;8.85;100.00
30554;BME280;17335;50.720;7.452;2023-05-15T00:43:03;99066.75;;;8.84;100.00
30554;BME280;17335;50.720;7.452;2023-05-15T00:45:30;99064.63;;;8.78;100.00
30554;BME280;17335;50.720;7.452;2023-05-15T00:47:57;99071.66;;;8.79;100.00
30554;BME280;17335;50.720;7.452;2023-05-15T00:50:24;99058.84;;;8.73;100.00
30554;BME280;17335;50.720;7.452;2023-05-15T00:52:51;99063.50;;;8.80;100.00
30554;BME280;17335;50.720;7.452;2023-05-15T00:55:18;99061.53;;;8.82;100.00
30554;BME280;17335;50.720;7.452;2023-05-15T00:57:46;99062.34;;;8.83;100.00
30554;BME280;17335;50.720;7.452;2023-05-15T01:00:13;99062.94;;;8.77;100.00
30554;BME280;17335;50.720;7.452;2023-05-15T01:02:42;99061.94;;;8.68;100.00
30554;BME280;17335;50.720;7.452;2023-05-15T01:05:09;99057.28;;;8.60;100.00
30554;BME280;17335;50.720;7.452;2023-05-15T01:07:43;99057.97;;;8.62;100.00
30554;BME280;17335;50.720;7.452;2023-05-15T01:10:14;99061.53;;;8.63;100.00
30554;BME280;17335;50.720;7.452;2023-05-15T01:12:43;99068.13;;;8.59;100.00
30554;BME280;17335;50.720;7.452;2023-05-15T01:15:11;99055.88;;;8.56;100.00
30554;BME280;17335;50.720;7.452;2023-05-15T01:17:38;99058.81;;;8.53;100.00
30554;BME280;17335;50.720;7.452;2023-05-15T01:20:07;99062.06;;;8.57;100.00
30554;BME280;17335;50.720;7.452;2023-05-15T01:22:46;99059.13;;;8.60;100.00
30554;BME280;17335;50.720;7.452;2023-05-15T01:28:37;99068.25;;;8.48;100.00
30554;BME280;17335;50.720;7.452;2023-05-15T01:31:10;99060.94;;;8.50;100.00
30554;BME280;17335;50.720;7.452;2023-05-15T01:33:42;99067.00;;;8.52;100.00
30554;BME280;17335;50.720;7.452;2023-05-15T01:36:19;99076.41;;;8.56;100.00
30554;BME280;17335;50.720;7.452;2023-05-15T01:38:53;99078.69;;;8.60;100.00
30554;BME280;17335;50.720;7.452;2023-05-15T01:41:35;99059.78;;;8.52;100.00
30554;BME280;17335;50.720;7.452;2023-05-15T01:44:07;99067.97;;;8.51;100.00
30554;BME280;17335;50.720;7.452;2023-05-15T01:46:44;99067.06;;;8.40;100.00
30554;BME280;17335;50.720;7.452;2023-05-15T01:49:12;99071.00;;;8.36;100.00
30554;BME280;17335;50.720;7.452;2023-05-15T01:51:43;99084.22;;;8.28;100.00
30554;BME280;17335;50.720;7.452;2023-05-15T01:54:12;99070.53;;;8.21;100.00
30554;BME280;17335;50.720;7.452;2023-05-15T01:56:40;99075.06;;;8.21;100.00
30554;BME280;17335;50.720;7.452;2023-05-15T01:59:12;99066.06;;;8.22;100.00
30554;BME280;17335;50.720;7.452;2023-05-15T02:01:40;99073.78;;;8.25;100.00
30554;BME280;17335;50.720;7.452;2023-05-15T02:04:08;99063.69;;;8.29;100.00
30554;BME280;17335;50.720;7.452;2023-05-15T02:06:35;99068.72;;;8.22;100.00
30554;BME280;17335;50.720;7.452;2023-05-15T02:09:02;99071.53;;;8.20;100.00
30554;BME280;17335;50.720;7.452;2023-05-15T02:11:29;99073.06;;;8.23;100.00
30554;BME280;17335;50.720;7.452;2023-05-15T02:13:56;99076.31;;;8.17;100.00
30554;BME280;17335;50.720;7.452;2023-05-15T02:16:23;99069.53;;;8.13;100.00
30554;BME280;17335;50.720;7.452;2023-05-15T02:18:50;99064.44;;;8.10;100.00
30554;BME280;17335;50.720;7.452;2023-05-15T02:21:17;99068.44;;;8.15;100.00
30554;BME280;17335;50.720;7.452;2023-05-15T02:23:45;99062.78;;;8.08;100.00
30554;BME280;17335;50.720;7.452;2023-05-15T02:31:58;99059.09;;;8.00;100.00
30554;BME280;17335;50.720;7.452;2023-05-15T02:37:00;99055.16;;;8.04;100.00
30554;BME280;17335;50.720;7.452;2023-05-15T02:39:28;99061.34;;;8.04;100.00
30554;BME280;17335;50.720;7.452;2023-05-15T02:41:55;99063.34;;;8.12;100.00
30554;BME280;17335;50.720;7.452;2023-05-15T02:44:22;99060.81;;;8.11;100.00
30554;BME280;17335;50.720;7.452;2023-05-15T02:46:51;99068.69;;;8.12;100.00
30554;BME280;17335;50.720;7.452;2023-05-15T02:49:19;99066.28;;;8.09;100.00
30554;BME280;17335;50.720;7.452;2023-05-15T02:51:47;99068.97;;;8.09;100.00
30554;BME280;17335;50.720;7.452;2023-05-15T02:54:14;99074.31;;;8.09;100.00
30554;BME280;17335;50.720;7.452;2023-05-15T02:56:40;99069.84;;;8.19;100.00
30554;BME280;17335;50.720;7.452;2023-05-15T02:59:07;99068.72;;;8.22;100.00
30554;BME280;17335;50.720;7.452;2023-05-15T03:01:33;99060.00;;;8.30;100.00
30554;BME280;17335;50.720;7.452;2023-05-15T03:04:00;99067.38;;;8.37;100.00
30554;BME280;17335;50.720;7.452;2023-05-15T03:06:26;99056.69;;;8.47;100.00
30554;BME280;17335;50.720;7.452;2023-05-15T03:08:53;99057.69;;;8.56;100.00
30554;BME280;17335;50.720;7.452;2023-05-15T03:11:20;99063.31;;;8.62;100.00
30554;BME280;17335;50.720;7.452;2023-05-15T03:13:46;99061.78;;;8.70;100.00
30554;BME280;17335;50.720;7.452;2023-05-15T03:16:13;99068.44;;;8.75;100.00
30554;BME280;17335;50.720;7.452;2023-05-15T03:18:39;99071.09;;;8.85;100.00
30554;BME280;17335;50.720;7.452;2023-05-15T03:21:07;99069.56;;;8.92;100.00
30554;BME280;17335;50.720;7.452;2023-05-15T03:23:34;99072.66;;;8.97;100.00
30554;BME280;17335;50.720;7.452;2023-05-15T03:26:03;99074.47;;;9.07;100.00
30554;BME280;17335;50.720;7.452;2023-05-15T03:28:29;99068.69;;;9.21;100.00
30554;BME280;17335;50.720;7.452;2023-05-15T03:30:56;99071.22;;;9.42;100.00
30554;BME280;17335;50.720;7.452;2023-05-15T03:33:23;99082.75;;;9.52;100.00
30554;BME280;17335;50.720;7.452;2023-05-15T03:35:49;99081.13;;;9.69;100.00
30554;BME280;17335;50.720;7.452;2023-05-15T03:38:18;99084.22;;;9.74;100.00
30554;BME280;17335;50.720;7.452;2023-05-15T03:40:44;99091.81;;;9.79;100.00
30554;BME280;17335;50.720;7.452;2023-05-15T03:43:10;99084.75;;;9.78;100.00
30554;BME280;17335;50.720;7.452;2023-05-15T03:45:38;99091.00;;;9.79;100.00
30554;BME280;17335;50.720;7.452;2023-05-15T03:48:04;99086.19;;;9.82;100.00
30554;BME280;17335;50.720;7.452;2023-05-15T03:50:31;99092.38;;;9.83;100.00
30554;BME280;17335;50.720;7.452;2023-05-15T03:52:58;99091.81;;;9.89;100.00
30554;BME280;17335;50.720;7.452;2023-05-15T03:55:25;99094.34;;;9.90;100.00
30554;BME280;17335;50.720;7.452;2023-05-15T03:57:52;99094.34;;;9.90;100.00
30554;BME280;17335;50.720;7.452;2023-05-15T04:00:19;99088.56;;;9.85;100.00
30554;BME280;17335;50.720;7.452;2023-05-15T04:02:45;99089.28;;;9.87;100.00
30554;BME280;17335;50.720;7.452;2023-05-15T04:05:12;99087.53;;;9.96;100.00
30554;BME280;17335;50.720;7.452;2023-05-15T04:07:39;99089.25;;;9.97;100.00
30554;BME280;17335;50.720;7.452;2023-05-15T04:10:06;99092.31;;;10.02;100.00
30554;BME280;17335;50.720;7.452;2023-05-15T04:12:33;99095.09;;;10.10;100.00
30554;BME280;17335;50.720;7.452;2023-05-15T04:17:42;99079.88;;;10.11;100.00
30554;BME280;17335;50.720;7.452;2023-05-15T04:20:09;99083.78;;;10.17;100.00
30554;BME280;17335;50.720;7.452;2023-05-15T04:22:37;99079.66;;;10.22;100.00
30554;BME280;17335;50.720;7.452;2023-05-15T04:25:03;99082.88;;;10.26;100.00
30554;BME280;17335;50.720;7.452;2023-05-15T04:27:30;99081.59;;;10.30;100.00
30554;BME280;17335;50.720;7.452;2023-05-15T04:29:57;99082.59;;;10.29;100.00
30554;BME280;17335;50.720;7.452;2023-05-15T04:32:23;99082.28;;;10.42;100.00
30554;BME280;17335;50.720;7.452;2023-05-15T04:34:50;99082.44;;;10.40;100.00
30554;BME280;17335;50.720;7.452;2023-05-15T04:37:16;99088.47;;;10.42;100.00
30554;BME280;17335;50.720;7.452;2023-05-15T04:39:43;99075.75;;;10.44;100.00
30554;BME280;17335;50.720;7.452;2023-05-15T04:42:09;99080.69;;;10.49;100.00
30554;BME280;17335;50.720;7.452;2023-05-15T04:44:36;99080.75;;;10.57;100.00
30554;BME280;17335;50.720;7.452;2023-05-15T04:47:02;99076.63;;;10.63;100.00
30554;BME280;17335;50.720;7.452;2023-05-15T04:49:29;99075.63;;;10.64;100.00
30554;BME280;17335;50.720;7.452;2023-05-15T04:51:55;99077.03;;;10.68;100.00
30554;BME280;17335;50.720;7.452;2023-05-15T04:54:22;99084.06;;;10.69;100.00
30554;BME280;17335;50.720;7.452;2023-05-15T04:56:49;99079.06;;;10.74;100.00
30554;BME280;17335;50.720;7.452;2023-05-15T04:59:15;99088.06;;;10.83;100.00
30554;BME280;17335;50.720;7.452;2023-05-15T05:01:43;99089.31;;;10.88;100.00
30554;BME280;17335;50.720;7.452;2023-05-15T05:04:10;99087.47;;;10.89;100.00
30554;BME280;17335;50.720;7.452;2023-05-15T05:06:37;99090.22;;;10.97;100.00
30554;BME280;17335;50.720;7.452;2023-05-15T05:09:04;99089.75;;;11.02;100.00
30554;BME280;17335;50.720;7.452;2023-05-15T05:11:31;99087.13;;;11.10;100.00
30554;BME280;17335;50.720;7.452;2023-05-15T05:13:57;99092.44;;;11.20;100.00
30554;BME280;17335;50.720;7.452;2023-05-15T05:16:24;99078.00;;;11.21;100.00
30554;BME280;17335;50.720;7.452;2023-05-15T05:18:51;99087.22;;;11.36;100.00
30554;BME280;17335;50.720;7.452;2023-05-15T05:21:18;99082.13;;;11.33;100.00
30554;BME280;17335;50.720;7.452;2023-05-15T05:23:44;99094.09;;;11.39;100.00
30554;BME280;17335;50.720;7.452;2023-05-15T05:26:12;99094.47;;;11.44;100.00
30554;BME280;17335;50.720;7.452;2023-05-15T05:28:38;99093.38;;;11.55;100.00
30554;BME280;17335;50.720;7.452;2023-05-15T05:31:06;99096.59;;;11.58;100.00
30554;BME280;17335;50.720;7.452;2023-05-15T05:33:33;99098.28;;;11.59;100.00
30554;BME280;17335;50.720;7.452;2023-05-15T05:35:59;99093.28;;;11.64;100.00
30554;BME280;17335;50.720;7.452;2023-05-15T05:38:26;99098.03;;;11.71;100.00
30554;BME280;17335;50.720;7.452;2023-05-15T05:40:53;99094.16;;;11.73;100.00
30554;BME280;17335;50.720;7.452;2023-05-15T05:43:20;99090.72;;;11.81;100.00
30554;BME280;17335;50.720;7.452;2023-05-15T05:45:47;99096.66;;;11.93;100.00
30554;BME280;17335;50.720;7.452;2023-05-15T05:48:13;99089.97;;;11.97;100.00
30554;BME280;17335;50.720;7.452;2023-05-15T05:50:40;99092.50;;;11.98;100.00
30554;BME280;17335;50.720;7.452;2023-05-15T05:53:07;99097.88;;;11.98;100.00
30554;BME280;17335;50.720;7.452;2023-05-15T05:55:34;99094.19;;;11.99;100.00
30554;BME280;17335;50.720;7.452;2023-05-15T05:58:00;99094.22;;;12.08;100.00
30554;BME280;17335;50.720;7.452;2023-05-15T06:00:33;99093.81;;;11.94;100.00
30554;BME280;17335;50.720;7.452;2023-05-15T06:03:00;99095.50;;;11.95;100.00
30554;BME280;17335;50.720;7.452;2023-05-15T06:05:28;99088.16;;;12.06;100.00
30554;BME280;17335;50.720;7.452;2023-05-15T06:07:55;99093.25;;;12.09;100.00
30554;BME280;17335;50.720;7.452;2023-05-15T06:10:22;99090.53;;;12.09;100.00
30554;BME280;17335;50.720;7.452;2023-05-15T06:12:49;99092.56;;;12.15;100.00
30554;BME280;17335;50.720;7.452;2023-05-15T06:15:16;99099.53;;;12.26;100.00
30554;BME280;17335;50.720;7.452;2023-05-15T06:17:42;99095.00;;;12.26;100.00
30554;BME280;17335;50.720;7.452;2023-05-15T06:20:09;99091.28;;;12.27;100.00
30554;BME280;17335;50.720;7.452;2023-05-15T06:22:35;99085.56;;;12.30;100.00
30554;BME280;17335;50.720;7.452;2023-05-15T06:25:04;99090.66;;;12.33;100.00
30554;BME280;17335;50.720;7.452;2023-05-15T06:27:32;99079.25;;;12.40;100.00
30554;BME280;17335;50.720;7.452;2023-05-15T06:29:59;99084.34;;;12.59;100.00
30554;BME280;17335;50.720;7.452;2023-05-15T06:32:26;99080.81;;;12.59;100.00
30554;BME280;17335;50.720;7.452;2023-05-15T06:34:54;99078.47;;;12.72;100.00
30554;BME280;17335;50.720;7.452;2023-05-15T06:37:20;99076.63;;;12.72;100.00
30554;BME280;17335;50.720;7.452;2023-05-15T06:39:47;99065.69;;;12.90;100.00
30554;BME280;17335;50.720;7.452;2023-05-15T06:42:13;99068.91;;;12.78;100.00
30554;BME280;17335;50.720;7.452;2023-05-15T06:44:40;99068.72;;;12.87;100.00
30554;BME280;17335;50.720;7.452;2023-05-15T06:47:06;99068.72;;;12.87;100.00
30554;BME280;17335;50.720;7.452;2023-05-15T06:49:33;99069.56;;;12.80;100.00
30554;BME280;17335;50.720;7.452;2023-05-15T06:52:00;99070.91;;;12.84;100.00
30554;BME280;17335;50.720;7.452;2023-05-15T06:54:26;99064.88;;;12.90;100.00
30554;BME280;17335;50.720;7.452;2023-05-15T06:56:53;99068.88;;;12.86;100.00
30554;BME280;17335;50.720;7.452;2023-05-15T06:59:19;99069.22;;;12.91;100.00
30554;BME280;17335;50.720;7.452;2023-05-15T07:01:46;99064.19;;;12.96;100.00
30554;BME280;17335;50.720;7.452;2023-05-15T07:04:13;99069.41;;;12.98;100.00
30554;BME280;17335;50.720;7.452;2023-05-15T07:06:39;99065.03;;;12.88;100.00
30554;BME280;17335;50.720;7.452;2023-05-15T07:09:06;99081.88;;;12.90;100.00
30554;BME280;17335;50.720;7.452;2023-05-15T07:11:32;99075.75;;;12.72;100.00
30554;BME280;17335;50.720;7.452;2023-05-15T07:14:04;99078.97;;;12.75;100.00
30554;BME280;17335;50.720;7.452;2023-05-15T07:16:30;99070.38;;;12.72;100.00
30554;BME280;17335;50.720;7.452;2023-05-15T07:18:57;99082.50;;;12.68;100.00
30554;BME280;17335;50.720;7.452;2023-05-15T07:21:23;99078.66;;;12.70;100.00
30554;BME280;17335;50.720;7.452;2023-05-15T07:23:50;99084.34;;;12.59;100.00
30554;BME280;17335;50.720;7.452;2023-05-15T07:26:16;99079.28;;;12.56;100.00
30554;BME280;17335;50.720;7.452;2023-05-15T07:28:58;99081.13;;;12.55;100.00
30554;BME280;17335;50.720;7.452;2023-05-15T07:31:24;99083.84;;;12.64;100.00
30554;BME280;17335;50.720;7.452;2023-05-15T07:33:51;99083.00;;;12.71;100.00
30554;BME280;17335;50.720;7.452;2023-05-15T07:36:17;99074.28;;;12.78;100.00
30554;BME280;17335;50.720;7.452;2023-05-15T07:38:43;99074.28;;;12.86;100.00
30554;BME280;17335;50.720;7.452;2023-05-15T07:41:10;99071.63;;;13.10;100.00
30554;BME280;17335;50.720;7.452;2023-05-15T07:43:36;99062.50;;;13.11;100.00
30554;BME280;17335;50.720;7.452;2023-05-15T07:46:03;99062.53;;;13.03;100.00
30554;BME280;17335;50.720;7.452;2023-05-15T07:48:30;99058.97;;;13.03;100.00
30554;BME280;17335;50.720;7.452;2023-05-15T07:50:57;99061.69;;;13.11;100.00
30554;BME280;17335;50.720;7.452;2023-05-15T07:53:23;99067.56;;;13.23;100.00
30554;BME280;17335;50.720;7.452;2023-05-15T07:55:50;99067.78;;;13.38;100.00
30554;BME280;17335;50.720;7.452;2023-05-15T07:58:17;99062.69;;;13.51;100.00
30554;BME280;17335;50.720;7.452;2023-05-15T08:00:43;99062.69;;;13.59;100.00
30554;BME280;17335;50.720;7.452;2023-05-15T08:03:10;99060.38;;;13.40;100.00
30554;BME280;17335;50.720;7.452;2023-05-15T08:05:37;99064.75;;;13.32;100.00
30554;BME280;17335;50.720;7.452;2023-05-15T08:08:04;99070.28;;;13.23;100.00
30554;BME280;17335;50.720;7.452;2023-05-15T08:10:30;99075.66;;;13.23;100.00
30554;BME280;17335;50.720;7.452;2023-05-15T08:12:57;99067.06;;;13.11;100.00
30554;BME280;17335;50.720;7.452;2023-05-15T08:15:23;99083.41;;;13.26;100.00
30554;BME280;17335;50.720;7.452;2023-05-15T08:17:51;99081.41;;;13.28;100.00
30554;BME280;17335;50.720;7.452;2023-05-15T08:20:18;99083.09;;;13.21;100.00
30554;BME280;17335;50.720;7.452;2023-05-15T08:22:44;99078.34;;;12.90;100.00
30554;BME280;17335;50.720;7.452;2023-05-15T08:25:11;99078.50;;;12.88;100.00
30554;BME280;17335;50.720;7.452;2023-05-15T08:27:37;99086.78;;;12.95;100.00
30554;BME280;17335;50.720;7.452;2023-05-15T08:30:04;99078.53;;;13.05;100.00
30554;BME280;17335;50.720;7.452;2023-05-15T08:32:31;99087.81;;;13.19;100.00
30554;BME280;17335;50.720;7.452;2023-05-15T08:34:58;99090.84;;;13.32;100.00
30554;BME280;17335;50.720;7.452;2023-05-15T08:37:24;99088.97;;;13.24;100.00
30554;BME280;17335;50.720;7.452;2023-05-15T08:39:51;99087.44;;;13.22;100.00
30554;BME280;17335;50.720;7.452;2023-05-15T08:42:23;99077.69;;;13.21;100.00
30554;BME280;17335;50.720;7.452;2023-05-15T08:44:54;99081.75;;;13.33;100.00
30554;BME280;17335;50.720;7.452;2023-05-15T08:47:21;99083.09;;;13.54;100.00
30554;BME280;17335;50.720;7.452;2023-05-15T08:52:26;99074.50;;;13.58;100.00
30554;BME280;17335;50.720;7.452;2023-05-15T08:54:53;99072.47;;;13.60;100.00
30554;BME280;17335;50.720;7.452;2023-05-15T08:57:21;99072.16;;;13.55;100.00
30554;BME280;17335;50.720;7.452;2023-05-15T08:59:48;99071.66;;;13.43;100.00
30554;BME280;17335;50.720;7.452;2023-05-15T09:02:15;99079.19;;;13.23;100.00
30554;BME280;17335;50.720;7.452;2023-05-15T09:04:43;99081.06;;;13.31;100.00
30554;BME280;17335;50.720;7.452;2023-05-15T09:07:10;99078.69;;;13.28;100.00
30554;BME280;17335;50.720;7.452;2023-05-15T09:09:38;99078.69;;;13.20;100.00
30554;BME280;17335;50.720;7.452;2023-05-15T09:12:06;99079.22;;;13.15;100.00
30554;BME280;17335;50.720;7.452;2023-05-15T09:14:35;99072.31;;;13.21;100.00
30554;BME280;17335;50.720;7.452;2023-05-15T09:17:01;99080.19;;;13.30;100.00
30554;BME280;17335;50.720;7.452;2023-05-15T09:19:28;99076.38;;;13.41;100.00
30554;BME280;17335;50.720;7.452;2023-05-15T09:22:13;99079.22;;;13.31;100.00
30554;BME280;17335;50.720;7.452;2023-05-15T09:24:42;99078.91;;;13.43;100.00
30554;BME280;17335;50.720;7.452;2023-05-15T09:27:09;99082.91;;;13.30;100.00
30554;BME280;17335;50.720;7.452;2023-05-15T09:29:37;99074.84;;;13.47;100.00
30554;BME280;17335;50.720;7.452;2023-05-15T09:32:07;99071.28;;;13.63;100.00
30554;BME280;17335;50.720;7.452;2023-05-15T09:34:36;99056.41;;;13.75;100.00
30554;BME280;17335;50.720;7.452;2023-05-15T09:37:05;99062.91;;;14.05;100.00
30554;BME280;17335;50.720;7.452;2023-05-15T09:39:34;99062.69;;;14.23;100.00
30554;BME280;17335;50.720;7.452;2023-05-15T09:42:13;99046.75;;;14.37;100.00
30554;BME280;17335;50.720;7.452;2023-05-15T09:44:41;99053.63;;;14.48;100.00
30554;BME280;17335;50.720;7.452;2023-05-15T09:47:12;99055.63;;;14.45;100.00
30554;BME280;17335;50.720;7.452;2023-05-15T09:49:42;99058.28;;;14.54;100.00
30554;BME280;17335;50.720;7.452;2023-05-15T09:52:10;99055.09;;;14.58;100.00
30554;BME280;17335;50.720;7.452;2023-05-15T09:54:37;99058.13;;;14.55;100.00
30554;BME280;17335;50.720;7.452;2023-05-15T09:57:08;99063.34;;;14.65;100.00
30554;BME280;17335;50.720;7.452;2023-05-15T09:59:35;99053.19;;;14.36;100.00
30554;BME280;17335;50.720;7.452;2023-05-15T10:02:01;99054.25;;;14.58;100.00
30554;BME280;17335;50.720;7.452;2023-05-15T10:04:33;99052.50;;;14.34;100.00
30554;BME280;17335;50.720;7.452;2023-05-15T10:07:01;99050.31;;;14.37;100.00
30554;BME280;17335;50.720;7.452;2023-05-15T10:09:31;99051.66;;;14.33;100.00
30554;BME280;17335;50.720;7.452;2023-05-15T10:11:57;99054.66;;;14.38;100.00
30554;BME280;17335;50.720;7.452;2023-05-15T10:14:25;99055.22;;;14.34;100.00
30554;BME280;17335;50.720;7.452;2023-05-15T10:16:54;99052.41;;;14.50;100.00
30554;BME280;17335;50.720;7.452;2023-05-15T10:19:22;99047.41;;;14.78;100.00
30554;BME280;17335;50.720;7.452;2023-05-15T10:21:52;99040.66;;;14.74;100.00
30554;BME280;17335;50.720;7.452;2023-05-15T10:24:22;99042.19;;;14.37;100.00
30554;BME280;17335;50.720;7.452;2023-05-15T10:26:51;99036.41;;;14.40;100.00
30554;BME280;17335;50.720;7.452;2023-05-15T10:29:20;99037.63;;;14.38;100.00
30554;BME280;17335;50.720;7.452;2023-05-15T10:31:47;99046.97;;;14.27;100.00
30554;BME280;17335;50.720;7.452;2023-05-15T10:34:15;99031.22;;;14.93;100.00
30554;BME280;17335;50.720;7.452;2023-05-15T10:36:41;99014.81;;;15.18;100.00
30554;BME280;17335;50.720;7.452;2023-05-15T10:39:09;99026.16;;;15.13;100.00
30554;BME280;17335;50.720;7.452;2023-05-15T10:41:37;99022.09;;;14.94;100.00
30554;BME280;17335;50.720;7.452;2023-05-15T10:44:04;99021.06;;;14.95;100.00
30554;BME280;17335;50.720;7.452;2023-05-15T10:46:34;99024.25;;;14.99;100.00
30554;BME280;17335;50.720;7.452;2023-05-15T10:49:01;99008.00;;;15.22;100.00
30554;BME280;17335;50.720;7.452;2023-05-15T10:51:30;99001.69;;;15.45;100.00
30554;BME280;17335;50.720;7.452;2023-05-15T10:53:59;99005.19;;;15.68;100.00
30554;BME280;17335;50.720;7.452;2023-05-15T10:56:31;98998.84;;;15.91;100.00
30554;BME280;17335;50.720;7.452;2023-05-15T10:59:06;98999.13;;;15.96;100.00
30554;BME280;17335;50.720;7.452;2023-05-15T11:01:37;98992.53;;;16.35;100.00
30554;BME280;17335;50.720;7.452;2023-05-15T11:06:32;98992.13;;;16.75;100.00
30554;BME280;17335;50.720;7.452;2023-05-15T11:11:54;98991.19;;;15.80;100.00
30554;BME280;17335;50.720;7.452;2023-05-15T11:14:24;98983.34;;;15.70;100.00
30554;BME280;17335;50.720;7.452;2023-05-15T11:19:32;98975.13;;;16.44;100.00
30554;BME280;17335;50.720;7.452;2023-05-15T11:24:48;98961.47;;;16.53;100.00
30554;BME280;17335;50.720;7.452;2023-05-15T11:27:18;98959.41;;;16.98;100.00
30554;BME280;17335;50.720;7.452;2023-05-15T11:32:54;98950.16;;;17.42;100.00
30554;BME280;17335;50.720;7.452;2023-05-15T11:40:53;98936.13;;;17.10;100.00
30554;BME280;17335;50.720;7.452;2023-05-15T11:43:26;98941.91;;;17.29;100.00
30554;BME280;17335;50.720;7.452;2023-05-15T11:48:33;98933.22;;;17.40;100.00
30554;BME280;17335;50.720;7.452;2023-05-15T11:51:01;98920.06;;;17.37;100.00
30554;BME280;17335;50.720;7.452;2023-05-15T11:53:29;98919.66;;;17.40;100.00
30554;BME280;17335;50.720;7.452;2023-05-15T11:55:56;98926.16;;;17.17;100.00
30554;BME280;17335;50.720;7.452;2023-05-15T11:58:24;98917.66;;;17.20;100.00
30554;BME280;17335;50.720;7.452;2023-05-15T12:00:51;98918.84;;;17.46;100.00
30554;BME280;17335;50.720;7.452;2023-05-15T12:03:26;98923.81;;;17.71;100.00
30554;BME280;17335;50.720;7.452;2023-05-15T12:05:57;98912.91;;;18.06;100.00
30554;BME280;17335;50.720;7.452;2023-05-15T12:08:36;98899.09;;;18.01;100.00
30554;BME280;17335;50.720;7.452;2023-05-15T12:11:07;98902.38;;;17.89;100.00
30554;BME280;17335;50.720;7.452;2023-05-15T12:13:34;98913.56;;;17.73;100.00
30554;BME280;17335;50.720;7.452;2023-05-15T12:16:02;98903.88;;;17.92;100.00
30554;BME280;17335;50.720;7.452;2023-05-15T12:18:30;98899.59;;;18.24;100.00
30554;BME280;17335;50.720;7.452;2023-05-15T12:20:58;98902.31;;;18.44;100.00
30554;BME280;17335;50.720;7.452;2023-05-15T12:23:25;98905.25;;;18.29;100.00
30554;BME280;17335;50.720;7.452;2023-05-15T12:25:58;98896.03;;;18.37;100.00
30554;BME280;17335;50.720;7.452;2023-05-15T12:28:27;98891.66;;;18.29;100.00
30554;BME280;17335;50.720;7.452;2023-05-15T12:30:54;98902.94;;;18.46;100.00
30554;BME280;17335;50.720;7.452;2023-05-15T12:33:22;98889.16;;;18.61;100.00
30554;BME280;17335;50.720;7.452;2023-05-15T12:35:52;98893.38;;;18.84;100.00
30554;BME280;17335;50.720;7.452;2023-05-15T12:38:19;98880.63;;;19.04;100.00
30554;BME280;17335;50.720;7.452;2023-05-15T12:40:50;98883.94;;;19.13;100.00
30554;BME280;17335;50.720;7.452;2023-05-15T12:43:19;98876.66;;;19.14;100.00
30554;BME280;17335;50.720;7.452;2023-05-15T12:45:45;98868.19;;;19.42;100.00
30554;BME280;17335;50.720;7.452;2023-05-15T12:48:15;98865.50;;;19.94;100.00
30554;BME280;17335;50.720;7.452;2023-05-15T12:50:43;98860.06;;;19.94;100.00
30554;BME280;17335;50.720;7.452;2023-05-15T12:53:16;98859.16;;;20.07;100.00
30554;BME280;17335;50.720;7.452;2023-05-15T12:55:44;98860.81;;;19.56;100.00
30554;BME280;17335;50.720;7.452;2023-05-15T12:58:13;98855.09;;;19.05;100.00
30554;BME280;17335;50.720;7.452;2023-05-15T13:00:41;98851.97;;;18.88;100.00
30554;BME280;17335;50.720;7.452;2023-05-15T13:03:10;98854.22;;;19.18;100.00
30554;BME280;17335;50.720;7.452;2023-05-15T13:05:38;98840.81;;;19.89;100.00
30554;BME280;17335;50.720;7.452;2023-05-15T13:08:06;98836.16;;;19.96;100.00
30554;BME280;17335;50.720;7.452;2023-05-15T13:10:36;98842.69;;;19.29;100.00
30554;BME280;17335;50.720;7.452;2023-05-15T13:13:03;98843.75;;;19.22;100.00
30554;BME280;17335;50.720;7.452;2023-05-15T13:15:37;98853.00;;;18.74;100.00
30554;BME280;17335;50.720;7.452;2023-05-15T13:18:15;98846.50;;;18.68;100.00
30554;BME280;17335;50.720;7.452;2023-05-15T13:20:45;98843.81;;;18.88;100.00
30554;BME280;17335;50.720;7.452;2023-05-15T13:23:14;98845.25;;;19.04;100.00
30554;BME280;17335;50.720;7.452;2023-05-15T13:25:42;98848.72;;;19.45;100.00
30554;BME280;17335;50.720;7.452;2023-05-15T13:28:09;98838.81;;;19.64;100.00
30554;BME280;17335;50.720;7.452;2023-05-15T13:30:37;98834.91;;;19.46;95.19
30554;BME280;17335;50.720;7.452;2023-05-15T13:33:08;98829.09;;;19.81;94.30
30554;BME280;17335;50.720;7.452;2023-05-15T13:35:36;98834.09;;;19.91;90.88